Time;durP1;ratioP1;P1;durP2;ratioP2;P2;SDS_P1;SDS_P2;PMS_P1;PMS_P2;Temp;Humidity;BMP_temperature;BMP_pressure;BME280_temperature;BME280_humidity;BME280_pressure;Samples;Min_cycle;Max_cycle;Signal;HPM_P1;HPM_P2
2021/05/26 00:01:01;;;;;;;2.88;0.70;;;;;;;9.09;64.51;99140.81;5032534;28;20584;-83
2021/05/26 00:03:27;;;;;;;1.35;0.80;;;;;;;8.98;65.65;99127.66;5033179;28;20486;-83
2021/05/26 00:05:54;;;;;;;5.55;1.00;;;;;;;8.99;65.98;99116.63;5033011;28;20053;-83
2021/05/26 00:08:33;;;;;;;2.35;0.85;;;;;;;8.99;66.43;99126.66;5033208;28;20057;-82
2021/05/26 00:11:03;;;;;;;1.90;0.90;;;;;;;9.03;67.06;99123.41;5030585;28;20049;-83
2021/05/26 00:13:36;;;;;;;2.90;0.90;;;;;;;9.04;65.81;99118.81;5032336;28;20045;-82
2021/05/26 00:16:09;;;;;;;1.42;0.70;;;;;;;8.96;65.94;99125.13;5031925;28;20050;-85
2021/05/26 00:18:38;;;;;;;3.05;0.88;;;;;;;9.11;65.73;99127.94;5032586;28;20049;-82
2021/05/26 00:21:09;;;;;;;2.10;0.87;;;;;;;8.98;66.60;99119.53;5032243;28;20057;-83
2021/05/26 00:23:38;;;;;;;2.10;1.13;;;;;;;9.01;66.96;99120.00;5032998;28;20319;-83
2021/05/26 00:26:16;;;;;;;3.47;0.80;;;;;;;9.04;67.43;99116.09;5031824;28;20120;-82
2021/05/26 00:28:46;;;;;;;2.30;0.90;;;;;;;8.99;67.03;99100.38;5031355;28;20053;-83
2021/05/26 00:31:32;;;;;;;5.68;0.90;;;;;;;8.90;66.73;99095.13;5032837;28;20489;-82
2021/05/26 00:34:01;;;;;;;1.25;0.77;;;;;;;8.89;68.57;99086.16;5032411;28;20041;-83
2021/05/26 00:36:31;;;;;;;1.02;0.70;;;;;;;8.97;68.76;99099.72;5032692;28;20065;-83
2021/05/26 00:38:58;;;;;;;1.80;0.70;;;;;;;8.90;68.97;99095.13;5032351;28;20053;-82
2021/05/26 00:41:31;;;;;;;1.80;0.70;;;;;;;8.92;69.30;99101.25;5032733;28;20061;-82
2021/05/26 00:43:58;;;;;;;2.47;0.95;;;;;;;8.83;69.60;99079.56;5031184;28;20064;-83
2021/05/26 00:46:26;;;;;;;1.88;0.70;;;;;;;8.90;68.72;99082.44;5031727;28;20345;-82
2021/05/26 00:48:56;;;;;;;3.83;0.88;;;;;;;8.99;67.07;99080.53;5032334;28;20049;-82
2021/05/26 00:51:23;;;;;;;4.95;0.80;;;;;;;9.11;68.10;99084.53;5032403;28;20409;-82
2021/05/26 00:53:49;;;;;;;1.23;0.80;;;;;;;9.09;69.29;99086.56;5031749;28;20493;-82
2021/05/26 00:56:15;;;;;;;3.25;0.77;;;;;;;9.11;69.56;99087.25;5031590;28;20056;-83
2021/05/26 00:58:43;;;;;;;3.53;0.90;;;;;;;9.13;68.29;99087.91;5028108;28;20053;-83
2021/05/26 01:01:09;;;;;;;4.53;0.98;;;;;;;8.99;69.21;99067.81;5025250;28;20049;-83
2021/05/26 01:03:35;;;;;;;3.00;1.10;;;;;;;9.09;68.82;99073.00;5031608;28;20551;-83
2021/05/26 01:06:03;;;;;;;3.35;1.48;;;;;;;9.07;69.96;99066.09;5031647;28;20072;-82
2021/05/26 01:08:30;;;;;;;2.38;1.02;;;;;;;9.12;69.94;99074.53;5031757;28;20041;-82
2021/05/26 01:10:56;;;;;;;4.43;1.10;;;;;;;9.07;70.12;99056.09;5031488;28;20405;-82
2021/05/26 01:13:24;;;;;;;6.57;1.02;;;;;;;9.05;71.75;99066.28;5031465;28;20050;-83
2021/05/26 01:15:52;;;;;;;2.08;0.65;;;;;;;9.12;71.18;99058.25;5030509;28;20512;-83
2021/05/26 01:18:20;;;;;;;1.95;0.70;;;;;;;9.14;70.88;99058.94;5031426;28;20057;-84
2021/05/26 01:20:47;;;;;;;3.45;1.00;;;;;;;9.19;70.58;99061.97;5031428;28;20104;-83
2021/05/26 01:23:17;;;;;;;1.55;0.80;;;;;;;8.97;71.86;99039.19;5031200;28;20049;-83
2021/05/26 01:25:44;;;;;;;2.70;0.70;;;;;;;9.19;70.36;99061.97;5030660;28;20053;-82
2021/05/26 01:28:11;;;;;;;1.98;1.05;;;;;;;9.21;69.33;99055.34;5031540;28;20057;-83
2021/05/26 01:30:38;;;;;;;3.92;0.70;;;;;;;9.29;69.03;99057.16;5031259;28;20041;-83
2021/05/26 01:33:05;;;;;;;2.70;0.88;;;;;;;9.28;68.52;99052.75;5029744;28;20050;-82
2021/05/26 01:35:31;;;;;;;0.70;0.63;;;;;;;9.19;68.68;99048.41;5030928;28;20486;-83
2021/05/26 01:37:58;;;;;;;2.97;0.90;;;;;;;9.37;68.68;99056.25;5031546;28;20371;-83
2021/05/26 01:40:25;;;;;;;1.65;0.70;;;;;;;9.41;67.83;99051.28;5028937;28;20111;-82
2021/05/26 01:42:51;;;;;;;2.15;0.68;;;;;;;9.47;67.98;99054.16;5031069;28;20041;-83
2021/05/26 01:45:18;;;;;;;1.08;0.70;;;;;;;9.60;68.78;99048.09;5030977;28;20068;-83
2021/05/26 01:47:48;;;;;;;2.40;0.77;;;;;;;9.47;68.11;99026.16;5031687;28;20053;-82
2021/05/26 01:50:21;;;;;;;4.60;1.65;;;;;;;9.50;69.68;99042.94;5030814;28;20520;-81
2021/05/26 01:52:50;;;;;;;2.70;0.90;;;;;;;9.54;68.64;99025.28;5010670;28;20049;-82
2021/05/26 01:55:16;;;;;;;2.47;1.02;;;;;;;9.68;68.44;99029.06;5019781;28;20364;-82
2021/05/26 01:57:44;;;;;;;3.38;0.77;;;;;;;9.67;68.37;99016.50;5030804;28;20489;-82
2021/05/26 02:00:13;;;;;;;2.50;0.90;;;;;;;9.79;67.66;99030.47;5031361;28;20041;-83
2021/05/26 02:02:40;;;;;;;6.72;0.80;;;;;;;9.84;67.89;99024.50;5021327;28;20132;-82
2021/05/26 02:05:08;;;;;;;3.33;0.65;;;;;;;9.82;67.54;99015.72;5031065;28;20049;-82
2021/05/26 02:07:34;;;;;;;0.93;0.63;;;;;;;9.76;67.91;99006.41;5022990;28;20046;-82
2021/05/26 02:10:00;;;;;;;4.80;1.10;;;;;;;9.96;67.18;99017.59;5031033;28;20057;-82
2021/05/26 02:12:32;;;;;;;2.05;0.85;;;;;;;9.90;67.18;99002.03;5030343;28;20068;-82
2021/05/26 02:15:01;;;;;;;0.70;0.70;;;;;;;9.92;67.38;99002.69;5030488;28;20482;-82
2021/05/26 02:17:27;;;;;;;1.38;0.80;;;;;;;9.91;66.84;98998.31;5030933;28;20053;-82
2021/05/26 02:19:54;;;;;;;1.27;0.70;;;;;;;9.84;66.94;98989.19;5030654;28;20061;-81
2021/05/26 02:22:21;;;;;;;3.30;0.98;;;;;;;9.98;67.20;98995.69;5031052;28;20065;-82
2021/05/26 02:24:47;;;;;;;0.50;0.50;;;;;;;9.98;67.10;98995.69;5028655;28;20137;-82
2021/05/26 02:27:14;;;;;;;3.35;0.85;;;;;;;9.88;66.92;98971.53;5030343;28;20056;-82
2021/05/26 02:29:40;;;;;;;2.28;0.60;;;;;;;9.95;66.57;98975.19;5031377;28;20065;-82
2021/05/26 02:32:09;;;;;;;2.58;0.82;;;;;;;9.89;66.73;98971.34;5030830;28;20434;-82
2021/05/26 02:34:35;;;;;;;4.40;1.10;;;;;;;9.96;66.14;98979.56;5030639;28;20050;-82
2021/05/26 02:37:02;;;;;;;1.80;0.77;;;;;;;9.81;66.80;98962.44;5030954;28;20049;-82
2021/05/26 02:39:29;;;;;;;2.88;0.82;;;;;;;9.83;65.74;98961.22;5031542;28;20045;-82
2021/05/26 02:41:57;;;;;;;2.55;0.60;;;;;;;9.86;65.21;98958.13;5017479;28;20092;-82
2021/05/26 02:44:23;;;;;;;3.13;0.75;;;;;;;9.99;65.33;98967.50;5029131;28;20058;-81
2021/05/26 02:46:49;;;;;;;2.15;0.60;;;;;;;9.95;65.20;98956.19;5030832;28;20175;-82
2021/05/26 02:49:17;;;;;;;2.80;1.50;;;;;;;10.02;64.74;98981.53;5030671;28;20046;-82
2021/05/26 02:51:43;;;;;;;3.25;0.60;;;;;;;10.00;64.95;98967.31;5033930;28;20095;-82
2021/05/26 02:54:11;;;;;;;3.22;0.73;;;;;;;10.07;64.69;98979.13;5034101;28;20049;-81
2021/05/26 02:56:38;;;;;;;2.42;0.70;;;;;;;10.03;64.52;98980.53;5034663;28;20053;-82
2021/05/26 02:59:07;;;;;;;1.42;0.73;;;;;;;9.97;64.32;98966.84;5025613;28;20049;-82
2021/05/26 03:01:33;;;;;;;2.10;0.52;;;;;;;10.05;64.32;98991.19;5032700;28;20080;-82
2021/05/26 03:07:50;;;;;;;4.95;0.77;;;;;;;10.01;65.05;98976.28;4969260;28;20054;-81
2021/05/26 03:13:33;;;;;;;2.03;0.90;;;;;;;9.98;64.55;98976.66;5015823;28;20054;-80
2021/05/26 03:16:19;;;;;;;4.50;0.88;;;;;;;10.04;64.93;98979.50;5032310;28;20042;-81
2021/05/26 03:19:25;;;;;;;3.65;1.10;;;;;;;10.12;65.03;98981.28;5033584;28;20481;-81
2021/05/26 03:28:51;;;;;;;;;;;;;;;10.11;66.24;98990.44;4858150;29;20475;-80
2021/05/26 03:31:19;;;;;;;2.05;0.70;;;;;;;10.08;66.85;98985.41;4931453;29;20363;-80
2021/05/26 03:33:45;;;;;;;3.72;0.93;;;;;;;10.04;66.97;98978.63;4955390;28;20042;-81
2021/05/26 03:39:12;;;;;;;;;;;;;;;10.00;68.58;98991.75;5033466;28;20450;-81
2021/05/26 03:41:43;;;;;;;2.47;0.70;;;;;;;9.94;69.15;98981.63;5033649;28;19921;-81
2021/05/26 03:44:14;;;;;;;3.83;0.80;;;;;;;9.91;70.72;98982.00;5032700;28;20095;-81
2021/05/26 03:46:41;;;;;;;4.10;0.80;;;;;;;9.85;70.78;98977.31;5033429;28;20397;-81
2021/05/26 03:49:08;;;;;;;3.55;1.02;;;;;;;9.84;71.32;98968.31;5034097;28;20087;-80
2021/05/26 03:51:35;;;;;;;2.58;1.17;;;;;;;9.75;72.80;98972.16;5033569;28;20055;-81
2021/05/26 03:54:25;;;;;;;2.72;1.08;;;;;;;9.80;72.68;98983.31;5033148;28;20408;-81
2021/05/26 04:00:23;;;;;;;2.30;0.80;;;;;;;9.69;74.56;98970.16;4945991;28;20075;-80
2021/05/26 04:03:01;;;;;;;1.42;0.60;;;;;;;9.61;74.49;98960.22;4989109;28;20125;-81
2021/05/26 04:48:13;;;;;;;3.83;1.00;;;;;;;9.48;76.46;98941.00;5204134;22;20076;-82
2021/05/26 04:50:39;;;;;;;1.83;0.85;;;;;;;9.49;76.86;98940.00;5012388;28;20042;-82
2021/05/26 04:53:09;;;;;;;5.65;1.02;;;;;;;9.52;77.09;98945.88;5012117;28;20132;-82
2021/05/26 04:55:35;;;;;;;2.00;0.73;;;;;;;9.38;76.96;98925.00;5011775;28;20152;-82
2021/05/26 04:58:10;;;;;;;3.10;1.00;;;;;;;9.48;77.61;98912.00;5012699;28;20380;-82
2021/05/26 05:00:46;;;;;;;4.25;1.17;;;;;;;9.67;76.16;98940.50;5012183;28;20132;-82
2021/05/26 05:03:37;;;;;;;3.78;1.10;;;;;;;9.54;76.93;98924.00;5012230;28;20058;-82
2021/05/26 05:06:04;;;;;;;2.65;0.88;;;;;;;9.53;77.02;98919.63;5012395;28;20137;-82
2021/05/26 05:08:30;;;;;;;5.75;0.90;;;;;;;9.55;76.75;98921.09;5011948;28;20046;-81
2021/05/26 05:10:57;;;;;;;3.10;0.90;;;;;;;9.63;76.15;98938.34;5012054;28;20038;-82
2021/05/26 05:13:23;;;;;;;1.27;0.80;;;;;;;9.66;76.12;98941.50;5010340;28;20108;-82
2021/05/26 05:15:50;;;;;;;1.38;0.77;;;;;;;9.66;77.44;98938.81;5011597;28;20486;-81
2021/05/26 05:18:16;;;;;;;1.67;0.80;;;;;;;9.78;76.70;98951.94;5012295;28;20472;-81
2021/05/26 05:20:44;;;;;;;2.42;1.10;;;;;;;9.63;77.32;98930.19;5011661;28;20042;-81
2021/05/26 05:23:10;;;;;;;4.55;0.90;;;;;;;9.73;78.81;98945.19;5011709;28;20065;-81
2021/05/26 05:25:36;;;;;;;4.63;1.17;;;;;;;9.79;76.75;98934.63;5011496;28;20054;-81
2021/05/26 05:28:05;;;;;;;3.75;1.10;;;;;;;9.75;77.62;98942.28;5011895;28;20418;-81
2021/05/26 05:30:31;;;;;;;2.90;0.88;;;;;;;9.77;78.32;98934.81;4996686;28;20060;-82
2021/05/26 05:32:58;;;;;;;3.70;1.20;;;;;;;9.67;79.31;98921.50;5002094;28;20141;-81
2021/05/26 05:35:24;;;;;;;3.63;1.38;;;;;;;9.73;78.22;98936.22;5011240;28;20053;-81
2021/05/26 05:37:51;;;;;;;3.13;1.23;;;;;;;9.69;78.66;98937.59;5012324;28;20528;-81
2021/05/26 05:40:17;;;;;;;1.27;0.80;;;;;;;9.65;78.64;98928.13;5011380;28;20618;-81
2021/05/26 05:42:43;;;;;;;3.20;0.95;;;;;;;9.65;79.49;98931.72;5011766;28;20070;-80
2021/05/26 05:45:11;;;;;;;2.67;0.90;;;;;;;9.53;79.17;98909.59;5004427;28;20053;-80
2021/05/26 05:47:37;;;;;;;6.63;1.15;;;;;;;9.49;79.44;98910.97;5011440;28;20057;-80
2021/05/26 05:50:05;;;;;;;4.20;1.77;;;;;;;9.60;79.96;98923.25;5011308;28;20045;-80
2021/05/26 05:52:31;;;;;;;3.33;0.90;;;;;;;9.50;80.57;98918.09;5011536;28;20473;-80
2021/05/26 05:54:58;;;;;;;3.47;1.08;;;;;;;9.60;81.50;98927.84;5010962;28;20050;-80
2021/05/26 05:57:24;;;;;;;2.65;0.93;;;;;;;9.54;80.78;98922.16;5011910;28;20111;-81
2021/05/26 05:59:54;;;;;;;7.18;1.40;;;;;;;9.59;81.17;98929.72;5011222;28;20575;-80
2021/05/26 06:02:20;;;;;;;9.83;1.30;;;;;;;9.56;81.49;98932.81;5011130;28;20073;-80
2021/05/26 06:04:46;;;;;;;3.20;1.20;;;;;;;9.65;82.06;98930.84;5010783;28;20339;-80
2021/05/26 06:07:13;;;;;;;4.55;1.25;;;;;;;9.76;81.87;98945.84;5011386;28;20104;-80
2021/05/26 06:09:39;;;;;;;4.68;1.55;;;;;;;9.64;82.26;98950.88;5011181;28;20050;-79
2021/05/26 06:12:08;;;;;;;4.90;1.27;;;;;;;9.62;83.13;98945.66;5010504;28;20042;-79
2021/05/26 06:14:34;;;;;;;6.75;1.67;;;;;;;9.57;81.89;98932.63;5010369;28;20061;-79
2021/05/26 06:17:00;;;;;;;4.25;1.25;;;;;;;9.61;83.40;98943.13;5011212;28;20054;-79
2021/05/26 06:19:30;;;;;;;7.95;2.67;;;;;;;9.54;82.48;98918.56;5010954;28;20049;-79
2021/05/26 06:21:56;;;;;;;;;;;;;;;9.63;82.35;98936.47;5011524;28;20124;-79
2021/05/26 06:24:22;;;;;;;2.85;1.33;;;;;;;9.46;82.79;98914.06;5010897;28;20366;-78
2021/05/26 06:26:49;;;;;;;4.95;1.30;;;;;;;9.54;82.67;98927.56;5014162;28;20564;-78
2021/05/26 06:29:16;;;;;;;4.93;1.23;;;;;;;9.56;83.66;98939.06;5014871;28;20046;-79
2021/05/26 06:31:42;;;;;;;2.70;1.35;;;;;;;9.48;82.71;98932.88;5015046;28;20050;-79
2021/05/26 06:34:08;;;;;;;3.53;1.40;;;;;;;9.57;84.26;98920.91;5011278;28;20294;-79
2021/05/26 06:36:35;;;;;;;8.23;2.30;;;;;;;9.59;83.19;98921.59;5009884;28;20057;-78
2021/05/26 06:39:04;;;;;;;7.25;2.00;;;;;;;9.73;84.83;98933.50;5014576;28;20052;-78
2021/05/26 06:41:30;;;;;;;4.38;1.20;;;;;;;9.74;84.00;98924.31;5014630;28;20046;-78
2021/05/26 06:43:58;;;;;;;7.85;1.30;;;;;;;9.80;84.17;98922.72;5015240;28;20169;-77
2021/05/26 06:46:25;;;;;;;6.43;2.25;;;;;;;9.83;83.58;98930.50;5014754;28;20054;-78
2021/05/26 06:48:52;;;;;;;3.00;1.42;;;;;;;9.85;83.65;98923.84;5014502;28;20053;-78
2021/05/26 06:51:18;;;;;;;3.35;1.27;;;;;;;9.77;83.17;98920.38;5013613;28;20050;-78
2021/05/26 06:53:47;;;;;;;6.88;1.40;;;;;;;9.87;84.21;98919.06;5013392;28;20046;-79
2021/05/26 06:56:13;;;;;;;3.05;1.17;;;;;;;9.90;84.38;98926.84;5013543;28;20054;-79
2021/05/26 06:58:39;;;;;;;1.70;1.00;;;;;;;10.01;85.28;98927.41;5016581;28;20060;-79
2021/05/26 07:01:08;;;;;;;1.08;0.80;;;;;;;10.12;83.62;98926.09;5013421;28;20038;-77
2021/05/26 07:03:35;;;;;;;8.43;1.38;;;;;;;10.08;84.10;98922.94;5011277;28;20145;-77
2021/05/26 07:06:02;;;;;;;4.00;1.05;;;;;;;10.17;83.96;98916.34;5012958;28;20386;-77
2021/05/26 07:08:28;;;;;;;9.18;1.52;;;;;;;10.10;85.23;98913.56;5014817;28;20053;-77
2021/05/26 07:10:57;;;;;;;2.20;1.10;;;;;;;10.09;85.23;98905.59;5014389;28;20041;-77
2021/05/26 07:13:24;;;;;;;4.53;1.27;;;;;;;10.22;84.15;98907.63;5013498;28;20046;-77
2021/05/26 07:15:52;;;;;;;4.22;1.60;;;;;;;10.22;84.11;98911.22;5014151;28;20049;-77
2021/05/26 07:18:22;;;;;;;4.50;1.27;;;;;;;10.24;85.32;98903.72;5013858;28;20101;-77
2021/05/26 07:20:49;;;;;;;2.33;1.08;;;;;;;10.31;85.16;98905.66;5014875;28;20092;-77
2021/05/26 07:23:17;;;;;;;3.45;1.20;;;;;;;10.31;85.00;98887.47;5006231;28;20124;-77
2021/05/26 07:25:43;;;;;;;6.05;1.30;;;;;;;10.35;83.81;98885.28;5013916;28;20449;-77
2021/05/26 07:28:09;;;;;;;3.85;1.02;;;;;;;10.26;83.47;98887.22;5014066;28;20070;-77
2021/05/26 07:30:36;;;;;;;2.78;1.45;;;;;;;10.47;83.62;98902.78;5013682;28;20050;-77
2021/05/26 07:33:05;;;;;;;2.50;1.15;;;;;;;10.41;84.10;98903.53;5013534;28;20044;-77
2021/05/26 07:35:31;;;;;;;5.57;1.58;;;;;;;10.33;84.40;98882.75;5013812;28;20054;-77
2021/05/26 07:38:01;;;;;;;3.05;1.20;;;;;;;10.36;84.21;98889.69;5011671;28;20049;-77
2021/05/26 07:40:27;;;;;;;;;;;;;;;10.39;84.62;98895.56;5013465;28;20045;-77
2021/05/26 07:42:54;;;;;;;8.30;2.28;;;;;;;10.52;84.02;98894.03;5013429;28;20304;-76
2021/05/26 07:45:20;;;;;;;5.00;2.75;;;;;;;10.54;84.55;98884.66;5012204;28;20517;-77
2021/05/26 07:47:46;;;;;;;9.48;2.13;;;;;;;10.57;83.02;98883.47;5011791;28;20049;-77
2021/05/26 07:50:13;;;;;;;3.92;1.52;;;;;;;10.61;84.57;98891.03;5001482;28;20414;-77
2021/05/26 07:52:40;;;;;;;4.45;1.85;;;;;;;10.76;83.69;98896.44;5002210;28;20042;-77
2021/05/26 07:58:40;;;;;;;5.55;2.05;;;;;;;10.81;84.62;98904.00;4965562;28;20179;-77
2021/05/26 08:01:07;;;;;;;4.43;2.20;;;;;;;10.76;82.34;98871.94;5008278;28;20045;-77
2021/05/26 08:03:33;;;;;;;4.47;2.28;;;;;;;10.84;83.47;98898.19;5013641;28;20493;-77
2021/05/26 08:05:59;;;;;;;4.05;1.48;;;;;;;10.75;83.14;98889.28;5012571;28;20061;-77
2021/05/26 08:08:27;;;;;;;6.07;1.58;;;;;;;10.86;84.36;98896.09;5010495;28;20054;-77
2021/05/26 08:10:53;;;;;;;2.78;1.67;;;;;;;10.89;83.85;98887.53;5012342;28;20096;-77
2021/05/26 08:13:20;;;;;;;3.40;1.75;;;;;;;10.80;82.99;98889.53;5013019;28;20046;-77
2021/05/26 08:15:47;;;;;;;5.53;2.00;;;;;;;10.91;84.38;98881.91;5012674;28;20072;-77
2021/05/26 08:18:13;;;;;;;3.00;1.40;;;;;;;10.96;82.17;98876.75;5012261;28;20462;-77
2021/05/26 08:20:40;;;;;;;7.20;3.47;;;;;;;10.97;82.22;98878.41;5012384;28;20545;-77
2021/05/26 08:23:06;;;;;;;8.02;2.13;;;;;;;10.90;83.44;98869.34;5009061;28;20550;-77
2021/05/26 08:25:33;;;;;;;6.93;2.13;;;;;;;10.97;82.82;98862.09;5007184;28;20414;-77
2021/05/26 08:28:01;;;;;;;4.97;2.45;;;;;;;11.06;83.03;98874.53;5012172;28;20054;-77
2021/05/26 08:30:27;;;;;;;7.05;3.90;;;;;;;10.97;83.86;98871.13;5013183;28;20120;-77
2021/05/26 08:32:54;;;;;;;5.72;2.13;;;;;;;11.07;84.00;98875.38;5012719;28;20057;-77
2021/05/26 08:35:23;;;;;;;3.10;1.60;;;;;;;11.08;84.57;98875.19;5012446;28;20049;-77
2021/05/26 08:37:50;;;;;;;9.48;2.35;;;;;;;11.16;83.40;98871.47;5011395;28;20057;-77
2021/05/26 08:40:17;;;;;;;2.65;1.60;;;;;;;11.01;83.73;98863.41;5011340;28;20045;-77
2021/05/26 08:42:44;;;;;;;2.55;1.50;;;;;;;11.08;84.68;98879.75;5012257;28;20046;-77
2021/05/26 08:45:12;;;;;;;4.50;1.80;;;;;;;11.11;84.95;98868.50;5011829;28;20054;-77
2021/05/26 08:47:42;;;;;;;8.52;1.52;;;;;;;11.16;83.62;98869.59;5011229;28;20141;-77
2021/05/26 08:50:13;;;;;;;2.78;1.27;;;;;;;11.20;84.17;98870.06;5012654;28;20061;-77
2021/05/26 08:52:39;;;;;;;10.10;2.22;;;;;;;11.08;83.35;98875.19;5012261;28;20046;-77
2021/05/26 08:55:09;;;;;;;5.75;2.58;;;;;;;11.08;83.46;98875.19;5011819;28;20054;-77
2021/05/26 08:57:37;;;;;;;3.90;1.48;;;;;;;11.02;81.23;98869.66;5005759;28;20054;-77
2021/05/26 09:00:04;;;;;;;1.92;1.38;;;;;;;10.96;83.19;98858.53;5011988;28;20049;-77
2021/05/26 09:02:33;;;;;;;2.95;1.20;;;;;;;10.97;80.62;98870.25;5012208;28;20046;-77
2021/05/26 09:04:59;;;;;;;4.35;1.58;;;;;;;11.15;82.66;98872.50;5011504;28;20073;-77
2021/05/26 09:07:32;;;;;;;4.35;1.73;;;;;;;11.16;83.27;98858.72;5012552;28;20096;-77
2021/05/26 09:09:59;;;;;;;3.20;1.52;;;;;;;10.93;82.63;98861.66;5012282;28;20513;-77
2021/05/26 09:12:30;;;;;;;4.32;1.50;;;;;;;10.88;83.01;98874.16;5011229;28;20046;-77
2021/05/26 09:15:02;;;;;;;5.97;1.70;;;;;;;10.65;82.95;98869.72;5009500;28;20042;-77
2021/05/26 09:17:30;;;;;;;2.80;1.20;;;;;;;10.54;84.57;98865.66;5011694;28;20085;-78
2021/05/26 09:20:18;;;;;;;4.28;1.58;;;;;;;10.58;83.48;98866.94;5011156;28;20052;-77
2021/05/26 09:23:02;;;;;;;5.55;1.17;;;;;;;10.68;83.33;98873.94;5011565;28;20529;-77
2021/05/26 09:25:30;;;;;;;4.47;1.17;;;;;;;10.78;82.36;98874.47;5000414;28;20053;-77
2021/05/26 09:28:17;;;;;;;3.38;1.60;;;;;;;10.91;83.10;98874.59;5011278;28;20096;-77
2021/05/26 09:30:44;;;;;;;4.45;1.35;;;;;;;10.93;84.01;98883.41;5010875;28;20100;-77
2021/05/26 09:33:25;;;;;;;5.90;2.05;;;;;;;10.86;79.75;98868.91;5012017;28;20050;-77
2021/05/26 09:36:06;;;;;;;3.83;1.38;;;;;;;10.71;80.58;98868.13;5011075;28;20053;-77
2021/05/26 09:38:44;;;;;;;3.22;2.13;;;;;;;10.66;79.27;98874.16;5012620;28;20057;-77
2021/05/26 09:41:33;;;;;;;3.92;1.38;;;;;;;10.71;80.24;98866.25;5012184;28;20486;-77
2021/05/26 09:44:09;;;;;;;3.72;1.20;;;;;;;10.47;78.32;98867.44;5013766;28;20049;-77
2021/05/26 09:46:37;;;;;;;3.03;1.30;;;;;;;10.43;79.94;98872.44;5011720;28;20413;-77
2021/05/26 09:49:13;;;;;;;5.40;1.73;;;;;;;10.47;80.23;98872.03;5011682;28;20517;-77
2021/05/26 09:51:43;;;;;;;5.55;0.90;;;;;;;10.60;80.05;98870.31;5011582;28;20137;-77
2021/05/26 09:54:17;;;;;;;2.33;1.27;;;;;;;10.65;79.84;98875.16;5011138;28;20049;-77
2021/05/26 09:56:45;;;;;;;2.40;1.20;;;;;;;10.86;80.11;98866.19;4992266;28;20055;-77
2021/05/26 09:59:11;;;;;;;4.32;1.23;;;;;;;10.73;78.68;98872.31;4992605;28;20069;-77
2021/05/26 10:01:38;;;;;;;4.30;1.15;;;;;;;10.69;77.96;98873.75;5009334;28;20072;-77
2021/05/26 10:04:05;;;;;;;4.85;2.15;;;;;;;10.76;78.23;98871.09;4991958;28;20113;-78
2021/05/26 10:06:32;;;;;;;6.65;1.70;;;;;;;10.76;77.17;98861.09;5010837;28;20050;-78
2021/05/26 10:08:59;;;;;;;3.15;1.63;;;;;;;10.86;77.97;98871.63;5011765;28;20058;-78
2021/05/26 10:11:28;;;;;;;2.60;1.00;;;;;;;10.87;77.79;98867.00;5011713;28;20497;-78
2021/05/26 10:13:55;;;;;;;4.00;1.77;;;;;;;10.90;78.08;98870.19;5011236;28;20073;-78
2021/05/26 10:16:22;;;;;;;4.18;1.98;;;;;;;11.10;78.71;98864.09;5011034;28;20490;-79
2021/05/26 10:18:50;;;;;;;6.05;1.90;;;;;;;11.18;76.36;98869.41;5000532;28;20050;-78
2021/05/26 10:21:20;;;;;;;4.80;2.90;;;;;;;11.24;75.56;98870.50;5006040;28;20494;-79
2021/05/26 10:23:46;;;;;;;;;;;;;;;11.14;74.10;98863.53;5011952;28;20054;-79
2021/05/26 10:26:12;;;;;;;4.43;2.60;;;;;;;11.21;76.01;98869.00;5011640;28;19980;-78
2021/05/26 10:28:39;;;;;;;6.43;4.07;;;;;;;11.36;74.52;98868.91;5010994;28;20112;-79
2021/05/26 10:31:06;;;;;;;2.58;1.55;;;;;;;11.48;75.26;98867.34;5010980;28;20085;-79
2021/05/26 10:33:51;;;;;;;2.17;1.08;;;;;;;11.41;72.56;98862.88;5011346;28;20398;-79
2021/05/26 10:36:18;;;;;;;5.22;2.05;;;;;;;11.33;73.64;98861.16;4992148;28;20046;-79
2021/05/26 10:38:56;;;;;;;7.95;3.78;;;;;;;11.52;75.76;98865.91;4994106;28;20061;-79
2021/05/26 10:41:22;;;;;;;15.07;7.25;;;;;;;11.57;74.23;98859.03;5010313;28;20046;-78
2021/05/26 10:43:53;;;;;;;4.38;1.83;;;;;;;11.71;76.07;98871.69;5011356;28;20406;-79
2021/05/26 10:46:34;;;;;;;4.68;1.90;;;;;;;11.69;75.61;98863.72;5011183;28;20049;-78
2021/05/26 10:49:07;;;;;;;8.68;3.53;;;;;;;11.51;74.27;98866.94;5010928;28;20050;-79
2021/05/26 10:52:09;;;;;;;2.67;1.60;;;;;;;11.63;76.04;98850.91;5002118;28;20112;-79
2021/05/26 10:55:03;;;;;;;2.60;0.85;;;;;;;11.71;74.92;98852.63;4991346;28;20058;-79
2021/05/26 10:57:32;;;;;;;1.10;0.95;;;;;;;11.40;74.17;98855.78;4991907;28;20082;-79
2021/05/26 11:00:32;;;;;;;2.80;1.35;;;;;;;11.62;76.78;98845.66;4991561;28;20050;-79
2021/05/26 11:03:30;;;;;;;1.55;0.90;;;;;;;11.93;75.16;98847.13;4990910;28;20058;-79
2021/05/26 11:05:58;;;;;;;1.98;0.93;;;;;;;11.75;72.02;98848.47;4993828;28;20081;-79
2021/05/26 11:08:45;;;;;;;6.97;2.00;;;;;;;11.76;73.26;98847.44;5005967;28;20062;-79
2021/05/26 11:11:52;;;;;;;0.88;0.77;;;;;;;11.80;72.44;98842.41;4993049;28;20046;-79
2021/05/26 11:14:35;;;;;;;6.32;1.00;;;;;;;11.85;71.59;98843.50;5014089;28;20041;-79
2021/05/26 11:17:22;;;;;;;2.83;1.20;;;;;;;11.89;72.31;98835.75;5013241;28;20050;-79
2021/05/26 11:19:48;;;;;;;2.60;1.33;;;;;;;11.82;69.22;98837.63;5014488;28;20053;-79
2021/05/26 11:22:16;;;;;;;1.98;0.80;;;;;;;11.77;70.39;98837.38;5014878;28;20046;-79
2021/05/26 11:24:44;;;;;;;0.57;0.40;;;;;;;11.78;72.37;98833.59;5007002;28;20415;-79
2021/05/26 11:27:16;;;;;;;2.42;0.90;;;;;;;12.04;73.17;98846.53;4994694;28;20050;-79
2021/05/26 11:29:42;;;;;;;0.55;0.43;;;;;;;12.06;69.90;98840.91;5008571;28;20193;-78
2021/05/26 11:32:10;;;;;;;1.75;0.68;;;;;;;11.78;70.13;98837.16;5013981;28;20402;-78
2021/05/26 11:34:39;;;;;;;3.97;1.30;;;;;;;11.65;71.63;98831.63;5013811;28;20491;-78
2021/05/26 11:37:06;;;;;;;2.72;1.17;;;;;;;11.77;73.10;98824.59;5014287;28;20053;-79
2021/05/26 11:39:34;;;;;;;0.95;0.50;;;;;;;11.71;70.28;98830.81;5013595;28;20076;-79
2021/05/26 11:42:12;;;;;;;0.65;0.63;;;;;;;11.58;70.04;98826.16;5001400;28;20051;-78
2021/05/26 11:44:39;;;;;;;2.95;1.10;;;;;;;11.55;71.06;98833.88;4996402;28;20054;-78
2021/05/26 11:47:06;;;;;;;1.20;0.95;;;;;;;11.44;70.32;98836.13;5013986;28;20050;-78
2021/05/26 11:49:35;;;;;;;1.98;0.80;;;;;;;11.44;69.83;98835.25;5013847;28;20054;-78
2021/05/26 11:52:03;;;;;;;1.88;0.88;;;;;;;11.60;70.65;98832.22;5013622;28;20492;-78
2021/05/26 11:54:29;;;;;;;2.05;0.50;;;;;;;11.58;70.19;98839.78;5013727;28;20484;-78
2021/05/26 11:57:04;;;;;;;1.05;0.55;;;;;;;11.64;69.52;98833.53;5013725;28;20054;-78
2021/05/26 11:59:30;;;;;;;1.20;0.38;;;;;;;11.57;68.48;98835.34;4999001;28;20097;-79
2021/05/26 12:01:57;;;;;;;1.70;0.82;;;;;;;11.55;70.14;98826.56;5002832;28;20038;-77
2021/05/26 12:04:24;;;;;;;4.57;2.20;;;;;;;11.60;70.70;98826.78;5013220;28;20046;-81
2021/05/26 12:07:07;;;;;;;1.73;1.38;;;;;;;11.74;69.44;98821.44;5013507;28;20046;-80
2021/05/26 12:09:41;;;;;;;2.15;0.77;;;;;;;11.71;68.78;98819.94;5013410;28;20056;-79
2021/05/26 12:12:16;;;;;;;3.33;0.65;;;;;;;11.90;68.75;98818.38;5012887;28;20050;-79
2021/05/26 12:14:59;;;;;;;1.52;0.73;;;;;;;12.13;68.48;98818.06;5006175;28;20551;-79
2021/05/26 12:17:26;;;;;;;0.68;0.63;;;;;;;12.20;67.29;98805.31;4993872;28;20053;-80
2021/05/26 12:19:52;;;;;;;1.33;0.63;;;;;;;12.17;66.89;98815.81;5012976;28;20399;-80
2021/05/26 12:22:22;;;;;;;2.85;0.40;;;;;;;12.24;66.99;98805.78;5013217;28;20613;-80
2021/05/26 12:24:54;;;;;;;1.27;0.80;;;;;;;12.39;65.21;98808.34;5012163;28;20057;-80
2021/05/26 12:27:31;;;;;;;0.70;0.60;;;;;;;12.55;65.88;98797.03;5013182;28;20143;-80
2021/05/26 12:30:14;;;;;;;0.82;0.70;;;;;;;12.89;65.56;98802.56;5013019;28;20057;-80
2021/05/26 12:32:40;;;;;;;1.65;1.10;;;;;;;13.16;64.38;98802.53;5001547;28;20117;-79
2021/05/26 12:35:12;;;;;;;3.17;0.68;;;;;;;13.32;64.46;98802.09;5002294;28;20096;-80
2021/05/26 12:37:39;;;;;;;2.70;0.93;;;;;;;13.39;63.16;98799.41;5013482;28;20050;-80
2021/05/26 12:40:07;;;;;;;1.38;0.60;;;;;;;13.29;63.37;98780.69;5012812;28;20052;-80
2021/05/26 12:42:35;;;;;;;0.35;0.35;;;;;;;13.23;64.06;98789.72;5013158;28;20460;-80
2021/05/26 12:45:21;;;;;;;2.45;0.80;;;;;;;13.37;62.86;98791.44;5013061;28;20407;-80
2021/05/26 12:47:48;;;;;;;1.35;0.50;;;;;;;13.34;62.66;98774.63;4993349;28;20506;-81
2021/05/26 12:50:16;;;;;;;2.92;0.80;;;;;;;13.68;62.51;98778.97;4993247;28;20057;-81
2021/05/26 12:52:43;;;;;;;1.60;0.60;;;;;;;13.79;62.18;98782.94;5009413;28;20049;-80
2021/05/26 12:55:12;;;;;;;1.20;0.70;;;;;;;13.54;60.78;98783.63;5012902;28;20050;-79
2021/05/26 12:57:41;;;;;;;2.50;0.32;;;;;;;13.41;61.46;98779.03;5012788;28;20058;-80